createdAt,value
2024-05-09T00:00:45.811Z,16.51
2024-05-09T00:03:14.741Z,16.53
2024-05-09T00:05:44.226Z,16.39
2024-05-09T00:08:12.521Z,16.31
2024-05-09T00:10:41.232Z,16.28
2024-05-09T00:13:11.240Z,16.30
2024-05-09T00:15:39.670Z,16.21
2024-05-09T00:18:08.118Z,16.20
2024-05-09T00:20:40.043Z,15.89
2024-05-09T00:23:14.005Z,16.43
2024-05-09T00:25:46.042Z,16.35
2024-05-09T00:28:13.645Z,16.42
2024-05-09T00:30:41.478Z,16.23
2024-05-09T00:33:10.880Z,16.26
2024-05-09T00:35:39.568Z,16.27
2024-05-09T00:38:07.352Z,16.19
2024-05-09T00:40:43.678Z,16.18
2024-05-09T00:43:13.719Z,16.21
2024-05-09T00:45:42.872Z,16.25
2024-05-09T00:48:15.185Z,16.22
2024-05-09T00:50:47.179Z,16.28
2024-05-09T00:53:17.690Z,16.36
2024-05-09T00:55:47.508Z,16.43
2024-05-09T00:58:18.424Z,16.49
2024-05-09T01:00:46.303Z,16.42
2024-05-09T01:03:15.416Z,16.39
2024-05-09T01:05:44.625Z,16.41
2024-05-09T01:08:13.674Z,16.45
2024-05-09T01:10:45.104Z,16.41
2024-05-09T01:13:14.336Z,16.42
2024-05-09T01:15:42.383Z,16.46
2024-05-09T01:18:14.364Z,16.48
2024-05-09T01:20:44.899Z,16.40
2024-05-09T01:23:15.731Z,16.45
2024-05-09T01:25:46.504Z,16.44
2024-05-09T01:28:15.312Z,16.39
2024-05-09T01:30:43.226Z,16.48
2024-05-09T01:33:12.228Z,16.48
2024-05-09T01:35:42.245Z,16.48
2024-05-09T01:38:13.908Z,16.55
2024-05-09T01:40:42.069Z,16.57
2024-05-09T01:43:10.759Z,16.52
2024-05-09T01:45:40.428Z,16.52
2024-05-09T01:48:09.499Z,16.57
2024-05-09T01:50:40.963Z,16.45
2024-05-09T01:53:11.692Z,16.63
2024-05-09T01:55:39.606Z,16.47
2024-05-09T01:58:07.722Z,16.51
2024-05-09T02:00:40.294Z,16.58
2024-05-09T02:03:15.406Z,16.60
2024-05-09T02:05:46.949Z,16.64
2024-05-09T02:08:18.154Z,16.77
2024-05-09T02:10:47.803Z,16.61
2024-05-09T02:13:16.739Z,16.56
2024-05-09T02:15:44.771Z,16.59
2024-05-09T02:18:13.436Z,16.64
2024-05-09T02:20:42.369Z,16.58
2024-05-09T02:23:10.874Z,16.66
2024-05-09T02:25:38.924Z,16.63
2024-05-09T02:28:06.454Z,16.69
2024-05-09T02:30:39.895Z,16.71
2024-05-09T02:33:12.396Z,16.55
2024-05-09T02:35:43.435Z,16.66
2024-05-09T02:38:11.964Z,16.69
2024-05-09T02:40:40.395Z,16.64
2024-05-09T02:43:10.829Z,16.58
2024-05-09T02:45:40.070Z,16.49
2024-05-09T02:48:12.413Z,16.41
2024-05-09T02:50:41.091Z,16.35
2024-05-09T02:53:09.708Z,16.41
2024-05-09T02:55:42.229Z,16.42
2024-05-09T02:58:10.911Z,16.54
2024-05-09T03:00:42.075Z,16.33
2024-05-09T03:03:14.051Z,16.34
2024-05-09T03:05:44.255Z,16.36
2024-05-09T03:08:12.277Z,16.15
2024-05-09T03:10:40.569Z,16.27
2024-05-09T03:13:09.393Z,16.19
2024-05-09T03:15:37.162Z,16.20
2024-05-09T03:18:06.339Z,16.24
2024-05-09T03:20:36.029Z,16.28
2024-05-09T03:23:06.694Z,16.26
2024-05-09T03:25:34.298Z,16.35
2024-05-09T03:28:01.870Z,16.36
2024-05-09T03:30:36.354Z,16.36
2024-05-09T03:33:18.369Z,16.46
2024-05-09T03:35:49.178Z,16.41
2024-05-09T03:38:17.492Z,16.40
2024-05-09T03:40:47.164Z,16.34
2024-05-09T03:43:15.819Z,16.13
2024-05-09T03:45:44.062Z,16.17
2024-05-09T03:48:12.228Z,16.08
2024-05-09T03:50:40.485Z,16.13
2024-05-09T03:53:11.523Z,16.15
2024-05-09T03:55:39.358Z,16.13
2024-05-09T03:58:08.368Z,16.12
2024-05-09T04:00:39.114Z,16.08
2024-05-09T04:03:10.979Z,16.18
2024-05-09T04:05:42.181Z,16.18
2024-05-09T04:08:11.185Z,16.29
2024-05-09T04:10:39.281Z,16.17
2024-05-09T04:13:06.607Z,16.01
2024-05-09T04:15:34.049Z,15.89
2024-05-09T04:18:02.397Z,15.98
2024-05-09T04:20:37.620Z,16.06
2024-05-09T04:23:09.566Z,15.93
2024-05-09T04:25:37.824Z,16.07
2024-05-09T04:28:05.880Z,16.09
2024-05-09T04:30:38.750Z,16.07
2024-05-09T04:33:12.210Z,16.07
2024-05-09T04:35:42.763Z,16.03
2024-05-09T04:38:10.686Z,16.15
2024-05-09T04:40:38.420Z,16.00
2024-05-09T04:43:07.493Z,15.91
2024-05-09T04:45:36.962Z,15.78
2024-05-09T04:48:05.385Z,15.80
2024-05-09T04:50:37.035Z,15.86
2024-05-09T04:53:10.084Z,15.86
2024-05-09T04:55:39.584Z,15.95
2024-05-09T04:58:09.954Z,16.01
2024-05-09T05:00:40.915Z,16.08
2024-05-09T05:03:14.115Z,16.14
2024-05-09T05:05:45.327Z,16.15
2024-05-09T05:08:16.750Z,15.99
2024-05-09T05:10:46.789Z,16.08
2024-05-09T05:13:23.256Z,16.20
2024-05-09T05:15:58.609Z,16.23
2024-05-09T05:18:28.545Z,16.25
2024-05-09T05:20:58.851Z,16.26
2024-05-09T05:23:27.191Z,16.19
2024-05-09T05:25:55.692Z,16.28
2024-05-09T05:28:23.545Z,16.10
2024-05-09T05:30:52.006Z,16.18
2024-05-09T05:33:20.266Z,16.15
2024-05-09T05:35:48.294Z,16.22
2024-05-09T05:38:17.574Z,16.30
2024-05-09T05:40:46.761Z,16.38
2024-05-09T05:43:19.004Z,16.44
2024-05-09T05:45:49.275Z,16.43
2024-05-09T05:48:17.752Z,16.32
2024-05-09T05:50:45.921Z,16.20
2024-05-09T05:53:13.901Z,16.23
2024-05-09T05:55:41.922Z,16.27
2024-05-09T05:58:10.976Z,16.22
2024-05-09T06:00:40.876Z,16.15
2024-05-09T06:03:10.507Z,16.03
2024-05-09T06:05:44.415Z,16.02
2024-05-09T06:08:12.690Z,15.94
2024-05-09T06:10:41.471Z,15.95
2024-05-09T06:13:13.974Z,15.98
2024-05-09T06:15:44.353Z,16.13
2024-05-09T06:18:12.973Z,16.18
2024-05-09T06:20:43.728Z,16.34
2024-05-09T06:23:12.540Z,16.12
2024-05-09T06:25:40.758Z,16.05
2024-05-09T06:28:08.194Z,16.08
2024-05-09T06:30:41.177Z,16.00
2024-05-09T06:33:14.381Z,16.04
2024-05-09T06:35:47.147Z,16.10
2024-05-09T06:38:15.115Z,16.06
2024-05-09T06:40:44.708Z,16.06
2024-05-09T06:43:18.336Z,15.99
2024-05-09T06:45:48.708Z,16.00
2024-05-09T06:48:22.565Z,16.06
2024-05-09T06:50:51.647Z,16.10
2024-05-09T06:53:23.206Z,15.95
2024-05-09T06:55:52.535Z,15.97
2024-05-09T06:58:20.666Z,15.94
2024-05-09T07:00:49.195Z,15.99
2024-05-09T07:03:18.834Z,15.93
2024-05-09T07:05:48.810Z,16.08
2024-05-09T07:08:18.531Z,16.07
2024-05-09T07:10:47.527Z,16.11
2024-05-09T07:13:16.022Z,16.01
2024-05-09T07:15:43.966Z,15.96
2024-05-09T07:18:17.642Z,16.07
2024-05-09T07:20:47.767Z,16.06
2024-05-09T07:23:16.162Z,16.05
2024-05-09T07:25:44.365Z,16.00
2024-05-09T07:28:17.014Z,16.18
2024-05-09T07:30:45.931Z,15.93
2024-05-09T07:33:18.245Z,16.21
2024-05-09T07:35:47.490Z,16.18
2024-05-09T07:38:15.895Z,16.12
2024-05-09T07:40:43.899Z,16.02
2024-05-09T07:43:15.908Z,15.95
2024-05-09T07:45:52.210Z,15.86
2024-05-09T07:52:37.868Z,15.92
2024-05-09T07:53:49.810Z,15.81
2024-05-09T07:56:22.477Z,15.81
2024-05-09T07:58:53.412Z,15.79
2024-05-09T08:01:21.682Z,15.81
2024-05-09T08:03:50.674Z,15.79
2024-05-09T08:06:20.516Z,15.85
2024-05-09T08:08:48.928Z,15.97
2024-05-09T08:11:16.392Z,15.95
2024-05-09T08:13:44.328Z,15.90
2024-05-09T08:16:13.697Z,16.04
2024-05-09T08:18:42.981Z,15.94
2024-05-09T08:21:10.598Z,15.87
2024-05-09T08:23:38.316Z,15.74
2024-05-09T08:26:06.030Z,15.64
2024-05-09T08:28:34.386Z,15.61
2024-05-09T08:31:05.159Z,15.33
2024-05-09T08:33:35.246Z,15.24
2024-05-09T08:36:03.372Z,15.05
2024-05-09T08:38:31.108Z,14.88
2024-05-09T08:40:59.124Z,14.71
2024-05-09T08:43:28.075Z,14.77
2024-05-09T08:45:59.404Z,14.57
2024-05-09T08:48:27.560Z,14.66
2024-05-09T08:50:55.362Z,14.59
2024-05-09T08:53:23.305Z,14.70
2024-05-09T08:55:51.774Z,14.88
2024-05-09T08:58:20.135Z,14.99
2024-05-09T09:00:49.497Z,14.98
2024-05-09T09:03:26.114Z,15.11
2024-05-09T09:06:01.842Z,15.10
2024-05-09T09:08:29.684Z,15.10
2024-05-09T09:10:59.511Z,15.10
2024-05-09T09:13:28.729Z,15.13
2024-05-09T09:16:01.193Z,15.16
2024-05-09T09:18:30.806Z,15.09
2024-05-09T09:20:59.089Z,15.01
2024-05-09T09:23:30.481Z,15.02
2024-05-09T09:26:00.229Z,15.10
2024-05-09T09:28:28.243Z,15.13
2024-05-09T09:31:02.299Z,15.19
2024-05-09T09:33:36.458Z,15.23
2024-05-09T09:36:06.307Z,15.31
2024-05-09T09:38:37.758Z,15.30
2024-05-09T09:41:08.869Z,15.34
2024-05-09T09:43:36.845Z,15.39
2024-05-09T09:46:08.717Z,15.46
2024-05-09T09:48:40.410Z,15.41
2024-05-09T09:51:08.607Z,15.50
2024-05-09T09:53:38.625Z,15.53
2024-05-09T09:56:10.606Z,15.58
2024-05-09T09:58:40.880Z,15.65
2024-05-09T10:01:09.479Z,15.76
2024-05-09T10:03:37.678Z,15.87
2024-05-09T10:06:07.101Z,15.70
2024-05-09T10:08:36.427Z,15.27
2024-05-09T10:11:04.783Z,15.19
2024-05-09T10:13:35.757Z,15.18
2024-05-09T10:16:09.653Z,15.06
2024-05-09T10:18:39.870Z,15.11
2024-05-09T10:21:20.919Z,15.08
2024-05-09T10:24:03.318Z,15.12
2024-05-09T10:26:38.307Z,14.99
2024-05-09T10:29:17.324Z,14.94
2024-05-09T10:31:47.823Z,14.96
2024-05-09T10:34:33.089Z,14.93
2024-05-09T10:37:05.792Z,15.05
2024-05-09T10:39:37.534Z,14.64
2024-05-09T10:42:09.888Z,14.61
2024-05-09T10:44:41.392Z,14.67
2024-05-09T10:47:10.167Z,14.61
2024-05-09T10:49:39.491Z,14.55
2024-05-09T10:52:09.085Z,14.62
2024-05-09T10:54:37.725Z,14.72
2024-05-09T10:57:07.367Z,14.72
2024-05-09T10:59:39.690Z,14.70
2024-05-09T11:02:08.187Z,14.55
2024-05-09T11:04:39.053Z,14.46
2024-05-09T11:07:13.840Z,14.50
2024-05-09T11:09:42.093Z,14.63
2024-05-09T11:12:10.439Z,14.42
2024-05-09T11:14:37.835Z,14.54
2024-05-09T11:17:07.540Z,14.57
2024-05-09T11:19:40.155Z,14.73
2024-05-09T11:22:09.007Z,14.74
2024-05-09T11:24:36.687Z,14.84
2024-05-09T11:27:06.132Z,14.86
2024-05-09T11:29:43.399Z,14.92
2024-05-09T11:32:17.649Z,14.88
2024-05-09T11:34:46.936Z,14.81
2024-05-09T11:37:14.946Z,14.80
2024-05-09T11:39:42.520Z,14.87
2024-05-09T11:42:09.847Z,14.82
2024-05-09T11:44:38.568Z,14.81
2024-05-09T11:47:07.240Z,14.75
2024-05-09T11:49:35.083Z,14.71
2024-05-09T11:52:02.901Z,14.77
2024-05-09T11:54:30.519Z,14.81
2024-05-09T11:56:58.305Z,14.75
2024-05-09T11:59:32.722Z,14.63
2024-05-09T12:02:00.913Z,14.40
2024-05-09T12:04:28.839Z,14.59
2024-05-09T12:06:56.564Z,14.58
2024-05-09T12:09:24.540Z,14.64
2024-05-09T12:11:52.516Z,14.70
2024-05-09T12:14:20.113Z,14.75
2024-05-09T12:16:48.611Z,14.72
2024-05-09T12:19:18.083Z,14.79
2024-05-09T12:21:46.111Z,14.87
2024-05-09T12:24:16.955Z,14.93
2024-05-09T12:26:46.019Z,14.85
2024-05-09T12:29:13.490Z,14.81
2024-05-09T12:31:41.335Z,14.90
2024-05-09T12:34:09.161Z,15.04
2024-05-09T12:36:37.261Z,15.16
2024-05-09T12:39:07.242Z,15.26
2024-05-09T12:41:34.946Z,15.26
2024-05-09T12:44:03.204Z,15.25
2024-05-09T12:46:32.378Z,15.31
2024-05-09T12:49:00.821Z,15.36
2024-05-09T12:51:29.021Z,15.37
2024-05-09T12:53:56.943Z,15.46
2024-05-09T12:56:25.077Z,15.48
2024-05-09T12:58:58.553Z,15.58
2024-05-09T13:01:26.720Z,15.62
2024-05-09T13:03:54.429Z,15.38
2024-05-09T13:06:23.309Z,15.61
2024-05-09T13:08:50.731Z,15.61
2024-05-09T13:11:18.586Z,15.65
2024-05-09T13:13:46.621Z,15.59
2024-05-09T13:16:14.286Z,15.56
2024-05-09T13:18:42.218Z,15.40
2024-05-09T13:21:09.920Z,15.50
2024-05-09T13:23:39.137Z,15.58
2024-05-09T13:26:06.649Z,15.65
2024-05-09T13:28:34.576Z,15.67
2024-05-09T13:31:02.252Z,15.69
2024-05-09T13:33:29.930Z,15.76
2024-05-09T13:35:58.254Z,15.66
2024-05-09T13:38:26.900Z,15.69
2024-05-09T13:40:54.469Z,15.67
2024-05-09T13:43:23.839Z,15.67
2024-05-09T13:45:52.697Z,15.71
2024-05-09T13:48:21.041Z,15.70
2024-05-09T13:50:48.996Z,15.64
2024-05-09T13:53:16.427Z,15.51
2024-05-09T13:55:44.153Z,15.56
2024-05-09T13:58:11.718Z,15.67
2024-05-09T14:00:46.311Z,15.54
2024-05-09T14:03:19.441Z,15.47
2024-05-09T14:05:50.115Z,15.43
2024-05-09T14:08:20.313Z,15.44
2024-05-09T14:10:49.995Z,15.48
2024-05-09T14:13:18.002Z,15.42
2024-05-09T14:15:46.861Z,15.62
2024-05-09T14:18:15.726Z,15.58
2024-05-09T14:20:43.537Z,15.74
2024-05-09T14:23:11.461Z,15.68
2024-05-09T14:25:42.651Z,15.66
2024-05-09T14:28:13.011Z,15.55
2024-05-09T14:30:41.917Z,15.51
2024-05-09T14:33:10.014Z,15.60
2024-05-09T14:35:39.197Z,15.66
2024-05-09T14:38:08.825Z,15.68
2024-05-09T14:40:42.179Z,15.54
2024-05-09T14:43:13.652Z,15.55
2024-05-09T14:45:43.775Z,15.48
2024-05-09T14:48:15.165Z,15.48
2024-05-09T14:50:43.692Z,15.55
2024-05-09T14:53:13.206Z,15.50
2024-05-09T14:55:43.549Z,15.54
2024-05-09T14:58:12.577Z,15.59
2024-05-09T15:00:46.325Z,15.60
2024-05-09T15:03:22.241Z,15.51
2024-05-09T15:05:51.667Z,15.54
2024-05-09T15:08:20.317Z,15.51
2024-05-09T15:10:50.253Z,15.54
2024-05-09T15:13:19.542Z,15.50
2024-05-09T15:15:48.679Z,15.47
2024-05-09T15:18:16.943Z,15.49
2024-05-09T15:20:45.274Z,15.44
2024-05-09T15:23:13.476Z,15.35
2024-05-09T15:25:41.290Z,15.20
2024-05-09T15:28:09.975Z,15.17
2024-05-09T15:30:37.861Z,15.20
2024-05-09T15:33:07.407Z,15.23
2024-05-09T15:35:36.236Z,15.19
2024-05-09T15:38:04.586Z,15.23
2024-05-09T15:40:39.063Z,15.14
2024-05-09T15:43:10.526Z,15.21
2024-05-09T15:45:41.447Z,15.24
2024-05-09T15:48:10.742Z,15.23
2024-05-09T15:50:41.332Z,15.27
2024-05-09T15:53:12.299Z,15.34
2024-05-09T15:55:40.875Z,15.35
2024-05-09T15:58:08.774Z,15.30
2024-05-09T16:00:40.283Z,15.27
2024-05-09T16:03:13.027Z,15.32
2024-05-09T16:05:43.635Z,15.32
2024-05-09T16:08:12.597Z,15.40
2024-05-09T16:10:44.630Z,15.38
2024-05-09T16:13:13.289Z,15.46
2024-05-09T16:15:41.135Z,15.39
2024-05-09T16:18:09.000Z,15.28
2024-05-09T16:20:40.404Z,15.31
2024-05-09T16:23:10.537Z,15.26
2024-05-09T16:25:41.993Z,15.26
2024-05-09T16:28:10.851Z,15.28
2024-05-09T16:30:39.696Z,15.19
2024-05-09T16:33:08.530Z,15.25
2024-05-09T16:35:38.023Z,15.19
2024-05-09T16:38:06.541Z,15.24
2024-05-09T16:40:38.939Z,15.20
2024-05-09T16:43:10.679Z,15.10
2024-05-09T16:45:44.993Z,15.23
2024-05-09T16:48:13.559Z,15.15
2024-05-09T16:50:41.098Z,15.20
2024-05-09T16:53:08.950Z,15.26
2024-05-09T16:55:36.926Z,15.31
2024-05-09T16:58:06.913Z,15.25
2024-05-09T17:00:41.065Z,15.26
2024-05-09T17:03:15.720Z,15.25
2024-05-09T17:05:46.579Z,15.23
2024-05-09T17:08:20.056Z,15.05
2024-05-09T17:10:49.527Z,15.07
2024-05-09T17:13:17.709Z,15.06
2024-05-09T17:15:45.656Z,15.11
2024-05-09T17:18:13.390Z,15.21
2024-05-09T17:20:41.253Z,15.19
2024-05-09T17:23:14.742Z,15.11
2024-05-09T17:25:42.897Z,15.20
2024-05-09T17:28:10.876Z,15.17
2024-05-09T17:30:40.731Z,15.18
2024-05-09T17:33:10.796Z,15.18
2024-05-09T17:35:39.306Z,15.22
2024-05-09T17:38:06.918Z,15.19
2024-05-09T17:40:36.908Z,15.28
2024-05-09T17:43:08.444Z,15.31
2024-05-09T17:45:41.164Z,15.30
2024-05-09T17:48:11.487Z,15.25
2024-05-09T17:50:41.704Z,15.22
2024-05-09T17:53:11.142Z,15.19
2024-05-09T17:55:40.248Z,15.22
2024-05-09T17:58:09.042Z,15.16
2024-05-09T18:00:40.089Z,15.20
2024-05-09T18:03:14.756Z,15.11
2024-05-09T18:05:44.140Z,15.19
2024-05-09T18:08:12.739Z,15.19
2024-05-09T18:10:41.434Z,15.22
2024-05-09T18:13:10.606Z,15.20
2024-05-09T18:15:39.900Z,15.26
2024-05-09T18:18:09.464Z,15.29
2024-05-09T18:20:43.125Z,15.22
2024-05-09T18:23:18.319Z,15.19
2024-05-09T18:25:47.271Z,15.25
2024-05-09T18:28:17.208Z,15.25
2024-05-09T18:30:46.081Z,15.27
2024-05-09T18:33:14.286Z,15.25
2024-05-09T18:35:44.359Z,15.26
2024-05-09T18:38:12.226Z,15.29
2024-05-09T18:40:43.559Z,15.30
2024-05-09T18:43:12.538Z,15.21
2024-05-09T18:45:40.460Z,15.30
2024-05-09T18:48:10.895Z,15.33
2024-05-09T18:50:41.569Z,15.33
2024-05-09T18:53:11.952Z,15.33
2024-05-09T18:55:41.647Z,15.33
2024-05-09T18:58:09.376Z,15.26
2024-05-09T19:00:40.311Z,15.18
2024-05-09T19:03:12.809Z,15.13
2024-05-09T19:05:43.683Z,15.07
2024-05-09T19:08:12.773Z,15.09
2024-05-09T19:10:40.796Z,15.10
2024-05-09T19:13:12.204Z,15.06
2024-05-09T19:15:42.510Z,15.11
2024-05-09T19:18:12.870Z,15.07
2024-05-09T19:20:41.483Z,15.04
2024-05-09T19:23:09.799Z,15.01
2024-05-09T19:25:37.765Z,15.04
2024-05-09T19:28:05.912Z,15.01
2024-05-09T19:30:39.762Z,14.97
2024-05-09T19:33:13.501Z,15.01
2024-05-09T19:35:44.372Z,14.90
2024-05-09T19:38:14.091Z,14.95
2024-05-09T19:40:43.144Z,14.93
2024-05-09T19:43:12.463Z,14.88
2024-05-09T19:45:41.668Z,14.91
2024-05-09T19:48:11.397Z,14.90
2024-05-09T19:50:43.772Z,14.94
2024-05-09T19:53:13.144Z,14.96
2024-05-09T19:55:42.167Z,14.94
2024-05-09T19:58:10.647Z,14.96
2024-05-09T20:00:41.802Z,15.01
2024-05-09T20:03:15.671Z,15.05
2024-05-09T20:05:47.540Z,15.06
2024-05-09T20:08:15.848Z,15.08
2024-05-09T20:10:44.275Z,15.07
2024-05-09T20:13:12.443Z,15.09
2024-05-09T20:15:40.207Z,15.13
2024-05-09T20:18:08.343Z,14.93
2024-05-09T20:20:40.407Z,15.04
2024-05-09T20:23:14.985Z,15.04
2024-05-09T20:25:44.825Z,15.02
2024-05-09T20:28:12.648Z,15.01
2024-05-09T20:30:41.414Z,15.10
2024-05-09T20:33:10.457Z,15.06
2024-05-09T20:35:38.740Z,15.09
2024-05-09T20:38:07.760Z,15.12
2024-05-09T20:40:38.979Z,15.13
2024-05-09T20:43:11.571Z,15.09
2024-05-09T20:45:40.732Z,15.10
2024-05-09T20:48:10.102Z,15.05
2024-05-09T20:50:42.114Z,15.14
2024-05-09T20:53:14.886Z,15.15
2024-05-09T20:55:44.907Z,15.18
2024-05-09T20:58:14.664Z,15.04
2024-05-09T21:00:45.857Z,15.14
2024-05-09T21:03:17.763Z,15.13
2024-05-09T21:05:47.774Z,15.11
2024-05-09T21:08:16.989Z,15.06
2024-05-09T21:10:48.378Z,15.10
2024-05-09T21:13:19.264Z,15.02
2024-05-09T21:15:47.915Z,15.03
2024-05-09T21:18:16.186Z,14.98
2024-05-09T21:20:45.119Z,15.01
2024-05-09T21:23:13.981Z,15.05
2024-05-09T21:25:42.124Z,15.04
2024-05-09T21:28:11.020Z,15.03
2024-05-09T21:30:42.659Z,14.93
2024-05-09T21:33:14.220Z,14.80
2024-05-09T21:35:44.851Z,14.79
2024-05-09T21:38:15.620Z,14.86
2024-05-09T21:40:45.527Z,14.83
2024-05-09T21:43:14.954Z,14.91
2024-05-09T21:45:43.856Z,14.95
2024-05-09T21:48:13.097Z,15.02
2024-05-09T21:50:42.441Z,15.00
2024-05-09T21:53:13.190Z,15.03
2024-05-09T21:55:43.070Z,15.05
2024-05-09T21:58:14.256Z,15.11
2024-05-09T22:00:46.615Z,15.11
2024-05-09T22:03:15.049Z,15.06
2024-05-09T22:05:44.882Z,15.09
2024-05-09T22:08:12.794Z,15.09
2024-05-09T22:10:42.336Z,15.09
2024-05-09T22:13:10.571Z,15.06
2024-05-09T22:15:40.598Z,15.08
2024-05-09T22:18:11.023Z,15.11
2024-05-09T22:20:47.908Z,15.09
2024-05-09T22:23:18.833Z,15.04
2024-05-09T22:25:46.333Z,14.85
2024-05-09T22:28:16.358Z,15.10
2024-05-09T22:30:46.504Z,15.02
2024-05-09T22:33:16.141Z,14.83
2024-05-09T22:35:44.236Z,14.85
2024-05-09T22:38:11.722Z,14.74
2024-05-09T22:40:47.409Z,14.83
2024-05-09T22:43:23.674Z,14.88
2024-05-09T22:45:56.619Z,14.86
2024-05-09T22:48:25.799Z,14.82
2024-05-09T22:50:54.377Z,14.83
2024-05-09T22:53:27.171Z,14.79
2024-05-09T22:55:55.797Z,14.72
2024-05-09T22:58:24.664Z,14.63
2024-05-09T23:00:53.966Z,14.60
2024-05-09T23:03:23.016Z,14.60
2024-05-09T23:05:51.096Z,14.60
2024-05-09T23:08:19.238Z,14.58
2024-05-09T23:10:47.885Z,14.54
2024-05-09T23:13:15.853Z,14.54
2024-05-09T23:15:43.664Z,14.52
2024-05-09T23:18:12.061Z,14.48
2024-05-09T23:20:40.312Z,14.41
2024-05-09T23:23:08.842Z,14.40
2024-05-09T23:25:37.622Z,14.24
2024-05-09T23:28:06.324Z,14.44
2024-05-09T23:30:39.872Z,14.37
2024-05-09T23:33:12.399Z,14.45
2024-05-09T23:35:43.111Z,14.55
2024-05-09T23:38:12.032Z,14.52
2024-05-09T23:40:41.444Z,14.40
2024-05-09T23:43:12.557Z,14.40
2024-05-09T23:45:41.530Z,14.40
2024-05-09T23:48:10.260Z,14.39
2024-05-09T23:50:40.139Z,14.43
2024-05-09T23:53:11.680Z,14.39
2024-05-09T23:55:39.904Z,14.33
2024-05-09T23:58:08.590Z,14.33
